Birjand, Birjand International Airport (OIMB)

NameBirjand International Airport
CityBirjand
CountryIran (Islamic Republic of)
ICAOOIMB
IATAXBJ
Altitude1509 m
CoordinatesGoogle Map
Live Air TrafficLiveATC.net
METAROIMB 191900Z 11004KT CAVOK 07/M05 Q1023
2018-11-19 19:00:00 Wind: East (110°) 2.06 m/s - Visibility: > 10000 m - Weather: CAVOK - Temperature: 7 °C - Dew point: -5 °C - Humidity: 42.5% - Pressure: 1023 hPa
Statistics

The table below shows the detailed information of all flights to/from Birjand, Birjand International Airport (OIMB).